Time;durP1;ratioP1;P1;durP2;ratioP2;P2;SDS_P1;SDS_P2;PMS_P1;PMS_P2;Temp;Humidity;BMP_temperature;BMP_pressure;BME280_temperature;BME280_humidity;BME280_pressure;Samples;Min_cycle;Max_cycle;Signal;HPM_P1;HPM_P2
2021/03/25 00:00:10;;;;;;;18.98;8.70;;;9.10;96.10;;;;;;5082943;28;20054;-72
2021/03/25 00:02:36;;;;;;;20.10;9.60;;;9.00;96.30;;;;;;5086477;28;20035;-72
2021/03/25 00:05:06;;;;;;;14.77;9.00;;;9.00;96.50;;;;;;5083529;28;20036;-72
2021/03/25 00:07:31;;;;;;;28.05;9.77;;;9.00;96.60;;;;;;5095142;28;20028;-72
2021/03/25 00:09:58;;;;;;;22.75;9.45;;;9.00;96.70;;;;;;5087573;28;20021;-73
2021/03/25 00:12:24;;;;;;;14.63;8.70;;;9.00;96.90;;;;;;5079147;28;20043;-72
2021/03/25 00:14:49;;;;;;;17.70;9.73;;;8.90;96.90;;;;;;5060457;28;20037;-73
2021/03/25 00:17:15;;;;;;;16.40;9.68;;;8.90;97.10;;;;;;5073658;28;20029;-72
2021/03/25 00:19:41;;;;;;;17.05;8.93;;;8.80;97.20;;;;;;5077810;28;20491;-72
2021/03/25 00:22:07;;;;;;;19.55;9.85;;;8.80;97.40;;;;;;5088973;28;20550;-72
2021/03/25 00:24:33;;;;;;;16.98;9.35;;;8.80;97.80;;;;;;5075008;28;20111;-72
2021/03/25 00:26:59;;;;;;;23.77;10.10;;;8.80;97.70;;;;;;5094544;28;20536;-72
2021/03/25 00:29:24;;;;;;;19.63;10.05;;;8.80;97.70;;;;;;5095322;28;20066;-72
2021/03/25 00:31:50;;;;;;;17.08;9.30;;;8.80;97.60;;;;;;5091378;28;20032;-72
2021/03/25 00:34:16;;;;;;;18.67;10.30;;;8.90;97.70;;;;;;5085781;28;20048;-72
2021/03/25 00:36:42;;;;;;;21.65;9.40;;;8.80;97.70;;;;;;5074165;28;20043;-72
2021/03/25 00:39:11;;;;;;;19.13;9.73;;;8.80;97.70;;;;;;5094496;28;20025;-72
2021/03/25 00:41:37;;;;;;;17.77;9.27;;;8.80;97.70;;;;;;5089371;28;20033;-72
2021/03/25 00:44:07;;;;;;;23.27;9.95;;;8.80;97.70;;;;;;5081398;28;20384;-72
2021/03/25 00:46:35;;;;;;;17.38;10.23;;;8.70;97.70;;;;;;5093811;28;20085;-72
2021/03/25 00:49:01;;;;;;;15.13;8.93;;;8.80;97.90;;;;;;5074503;28;20036;-72
2021/03/25 00:51:28;;;;;;;18.10;9.38;;;8.70;98.00;;;;;;5074011;28;20115;-72
2021/03/25 00:53:54;;;;;;;24.75;9.88;;;8.70;98.20;;;;;;5066059;28;20439;-72
2021/03/25 00:56:20;;;;;;;21.95;9.38;;;8.70;98.20;;;;;;5087816;28;20036;-72
2021/03/25 00:58:45;;;;;;;18.98;9.23;;;8.70;98.10;;;;;;5094925;28;20085;-72
2021/03/25 01:01:11;;;;;;;16.70;8.68;;;8.70;98.00;;;;;;5094255;28;20038;-72
2021/03/25 01:03:37;;;;;;;17.67;9.00;;;8.80;97.90;;;;;;5068663;28;20086;-72
2021/03/25 01:06:03;;;;;;;29.40;9.52;;;8.80;97.90;;;;;;5074264;28;20107;-72
2021/03/25 01:08:28;;;;;;;22.58;9.45;;;8.80;98.00;;;;;;5092551;28;20469;-72
2021/03/25 01:11:17;;;;;;;15.15;9.52;;;8.80;98.10;;;;;;5076392;28;20556;-72
2021/03/25 01:13:46;;;;;;;16.88;9.38;;;8.80;98.20;;;;;;5087401;28;20072;-72
2021/03/25 01:16:27;;;;;;;17.50;9.20;;;8.80;98.10;;;;;;5071430;28;20059;-72
2021/03/25 01:18:55;;;;;;;19.88;9.30;;;8.80;98.10;;;;;;5090600;28;20492;-72
2021/03/25 01:21:20;;;;;;;15.73;9.40;;;8.80;98.20;;;;;;5080886;28;20097;-72
2021/03/25 01:23:46;;;;;;;18.17;9.45;;;8.80;98.10;;;;;;5074040;28;20033;-72
2021/03/25 01:26:13;;;;;;;14.85;9.23;;;8.80;98.20;;;;;;5088406;28;20388;-72
2021/03/25 01:28:38;;;;;;;15.27;9.18;;;8.80;98.10;;;;;;5093847;28;20056;-72
2021/03/25 01:31:04;;;;;;;15.68;9.63;;;8.80;98.20;;;;;;5093840;28;20094;-72
2021/03/25 01:33:30;;;;;;;17.67;9.88;;;8.80;98.20;;;;;;5093800;28;20036;-72
2021/03/25 01:35:56;;;;;;;15.70;9.27;;;8.80;98.20;;;;;;5093598;28;20156;-72
2021/03/25 01:38:23;;;;;;;15.98;9.55;;;8.80;98.10;;;;;;5093967;28;20032;-72
2021/03/25 01:40:52;;;;;;;18.08;9.00;;;8.90;98.00;;;;;;5093716;28;20469;-72
2021/03/25 01:43:20;;;;;;;18.85;9.30;;;8.90;98.00;;;;;;5093852;28;20024;-72
2021/03/25 01:45:49;;;;;;;20.50;9.93;;;8.90;98.00;;;;;;5093916;28;20032;-72
2021/03/25 01:48:18;;;;;;;16.67;9.90;;;9.00;98.00;;;;;;5093464;28;20032;-72
2021/03/25 01:50:44;;;;;;;16.13;10.73;;;9.00;98.00;;;;;;5092919;28;20032;-72
2021/03/25 01:53:29;;;;;;;17.95;9.98;;;9.00;98.00;;;;;;5093600;28;20599;-72
2021/03/25 01:56:22;;;;;;;15.93;10.07;;;8.90;98.10;;;;;;5093203;28;20174;-72
2021/03/25 01:58:50;;;;;;;;;;;8.90;98.20;;;;;;5093567;28;20085;-72
2021/03/25 02:01:34;;;;;;;15.88;10.00;;;8.90;98.20;;;;;;5093564;28;19911;-72
2021/03/25 02:04:18;;;;;;;19.85;9.52;;;8.80;98.30;;;;;;5093466;28;20036;-72
2021/03/25 02:07:05;;;;;;;14.30;9.15;;;8.80;98.50;;;;;;5093343;28;20032;-72
2021/03/25 02:10:00;;;;;;;14.80;9.98;;;8.80;98.50;;;;;;5093438;28;20032;-72
2021/03/25 02:12:51;;;;;;;19.70;9.32;;;8.80;98.50;;;;;;5087506;28;20036;-72
2021/03/25 02:15:40;;;;;;;21.55;10.48;;;8.80;98.40;;;;;;5093131;28;20048;-72
2021/03/25 02:18:28;;;;;;;16.30;9.60;;;8.80;98.40;;;;;;5089216;28;20017;-72
2021/03/25 02:21:19;;;;;;;18.00;9.73;;;8.80;98.50;;;;;;5052696;28;20095;-72
2021/03/25 02:24:01;;;;;;;20.90;10.93;;;8.80;98.50;;;;;;5052617;28;20394;-73
2021/03/25 02:26:31;;;;;;;19.73;10.38;;;8.80;98.50;;;;;;5052912;28;20033;-73
2021/03/25 02:29:13;;;;;;;23.20;10.32;;;8.80;98.50;;;;;;5052730;28;20025;-72
2021/03/25 02:31:42;;;;;;;25.25;10.55;;;8.70;98.60;;;;;;5052695;28;20112;-73
2021/03/25 02:34:12;;;;;;;17.48;9.68;;;8.70;98.50;;;;;;5052690;28;20094;-73
2021/03/25 02:36:50;;;;;;;20.08;10.40;;;8.70;98.60;;;;;;5034959;28;20040;-72
2021/03/25 02:39:22;;;;;;;14.57;10.00;;;8.70;98.70;;;;;;5052457;28;20386;-73
2021/03/25 02:41:52;;;;;;;23.25;9.93;;;8.70;98.70;;;;;;5052336;28;20104;-72
2021/03/25 02:44:41;;;;;;;16.65;9.90;;;8.70;98.70;;;;;;5034511;28;20040;-72
2021/03/25 02:47:09;;;;;;;20.77;10.75;;;8.70;98.70;;;;;;5070962;28;20392;-72
2021/03/25 02:49:47;;;;;;;16.10;10.02;;;8.80;98.70;;;;;;5071577;28;20025;-72
2021/03/25 02:52:24;;;;;;;18.60;10.80;;;8.70;98.70;;;;;;5052612;28;20147;-72
2021/03/25 02:54:51;;;;;;;22.65;11.15;;;8.70;98.90;;;;;;5071648;28;20040;-72
2021/03/25 02:57:23;;;;;;;16.73;10.13;;;8.60;98.90;;;;;;5071968;28;20429;-73
2021/03/25 02:59:51;;;;;;;20.58;9.63;;;8.60;98.80;;;;;;5054105;28;20036;-72
2021/03/25 03:03:04;;;;;;;15.40;9.60;;;8.60;99.00;;;;;;5072782;28;20041;-72
2021/03/25 03:05:33;;;;;;;19.20;11.32;;;8.60;98.90;;;;;;4980915;28;20038;-72
2021/03/25 03:08:20;;;;;;;14.00;10.13;;;8.60;99.00;;;;;;5083442;28;20110;-72
2021/03/25 03:10:52;;;;;;;20.38;10.32;;;8.60;99.10;;;;;;5069624;28;20047;-72
2021/03/25 03:13:22;;;;;;;19.40;10.80;;;8.60;99.20;;;;;;5095885;28;20024;-72
2021/03/25 03:15:56;;;;;;;17.48;10.27;;;8.60;99.20;;;;;;5096194;28;20059;-72
2021/03/25 03:18:29;;;;;;;19.48;9.63;;;8.50;99.00;;;;;;5068933;28;20365;-72
2021/03/25 03:20:59;;;;;;;16.10;10.48;;;8.50;99.10;;;;;;5095982;28;20039;-73
2021/03/25 03:23:28;;;;;;;19.25;10.02;;;8.50;99.10;;;;;;5088499;28;20053;-72
2021/03/25 03:25:57;;;;;;;14.35;9.90;;;8.50;99.20;;;;;;5096162;28;20035;-73
2021/03/25 03:28:27;;;;;;;21.02;11.13;;;8.50;99.30;;;;;;5095758;28;20032;-73
2021/03/25 03:31:05;;;;;;;17.38;9.68;;;8.50;99.20;;;;;;5095537;28;20040;-72
2021/03/25 03:33:39;;;;;;;18.95;10.43;;;8.60;99.20;;;;;;5095190;28;20415;-73
2021/03/25 03:36:10;;;;;;;14.93;9.73;;;8.50;99.20;;;;;;5077912;28;20082;-73
2021/03/25 03:38:50;;;;;;;15.95;9.68;;;8.50;99.40;;;;;;5095621;28;20032;-72
2021/03/25 03:41:24;;;;;;;18.95;10.38;;;8.40;99.50;;;;;;5095690;28;20025;-72
2021/03/25 03:43:50;;;;;;;15.10;10.30;;;8.40;99.60;;;;;;5095447;28;20353;-72
2021/03/25 03:46:22;;;;;;;16.48;10.35;;;8.30;99.60;;;;;;5095531;28;20032;-72
2021/03/25 03:48:57;;;;;;;17.17;10.30;;;8.30;99.80;;;;;;5095400;28;20496;-72
2021/03/25 03:51:32;;;;;;;18.30;11.07;;;8.30;99.90;;;;;;5093938;28;20051;-72
2021/03/25 03:54:01;;;;;;;17.08;10.60;;;8.30;99.90;;;;;;5094660;28;20067;-72
2021/03/25 03:56:33;;;;;;;18.83;11.35;;;8.30;99.90;;;;;;5095620;28;20027;-73
2021/03/25 03:59:04;;;;;;;21.05;11.68;;;8.40;99.50;;;;;;5095569;28;20472;-72
2021/03/25 04:01:50;;;;;;;21.40;12.35;;;8.40;99.40;;;;;;5095676;28;20039;-72
2021/03/25 04:04:38;;;;;;;18.67;11.60;;;8.50;99.50;;;;;;5095659;28;20024;-72
2021/03/25 04:07:09;;;;;;;23.13;11.60;;;8.50;99.20;;;;;;5095484;28;20039;-72
2021/03/25 04:09:45;;;;;;;18.92;11.35;;;8.50;99.30;;;;;;5095854;28;20035;-73
2021/03/25 04:12:14;;;;;;;17.98;11.27;;;8.50;99.30;;;;;;5094404;28;20039;-73
2021/03/25 04:14:56;;;;;;;19.95;11.45;;;8.50;99.30;;;;;;5095416;28;20404;-72
2021/03/25 04:17:29;;;;;;;23.83;11.30;;;8.50;99.40;;;;;;5095403;28;20028;-73
2021/03/25 04:19:57;;;;;;;;;;;8.50;99.50;;;;;;5096069;28;20067;-72
2021/03/25 04:22:29;;;;;;;20.42;11.48;;;8.50;99.60;;;;;;5095456;28;20015;-73
2021/03/25 04:25:11;;;;;;;19.75;10.98;;;8.50;99.80;;;;;;5095562;28;20035;-72
2021/03/25 04:27:44;;;;;;;16.65;10.45;;;8.50;99.90;;;;;;5095040;28;20111;-72
2021/03/25 04:30:27;;;;;;;20.85;10.70;;;8.50;99.90;;;;;;5094938;28;20129;-72
2021/03/25 04:32:53;;;;;;;15.40;10.23;;;8.50;99.90;;;;;;5094605;28;20361;-72
2021/03/25 04:35:21;;;;;;;19.23;10.73;;;8.50;99.90;;;;;;5094590;28;20047;-72
2021/03/25 04:37:48;;;;;;;22.52;12.98;;;8.50;99.90;;;;;;5094800;28;20027;-72
2021/03/25 04:40:21;;;;;;;18.27;11.15;;;8.60;99.90;;;;;;5094875;28;20032;-72
2021/03/25 04:42:47;;;;;;;18.15;11.15;;;8.60;99.90;;;;;;5094269;28;20418;-72
2021/03/25 04:45:25;;;;;;;21.50;11.10;;;8.60;99.90;;;;;;5094654;28;20028;-72
2021/03/25 04:47:56;;;;;;;17.35;10.55;;;8.60;99.90;;;;;;5094622;28;20063;-72
2021/03/25 04:50:30;;;;;;;17.58;10.82;;;8.50;99.90;;;;;;5094913;28;20028;-72
2021/03/25 04:53:17;;;;;;;19.95;10.50;;;8.50;99.90;;;;;;5094637;28;20051;-72
2021/03/25 04:55:43;;;;;;;27.90;11.98;;;8.60;99.90;;;;;;5094172;28;20130;-72
2021/03/25 04:58:12;;;;;;;17.95;11.43;;;8.60;99.90;;;;;;5094248;28;20051;-72
2021/03/25 05:00:42;;;;;;;19.92;11.02;;;8.50;99.90;;;;;;5094220;28;20396;-72
2021/03/25 05:03:15;;;;;;;19.92;12.10;;;8.50;99.90;;;;;;5094453;28;20044;-72
2021/03/25 05:05:41;;;;;;;44.75;17.17;;;8.40;99.90;;;;;;5094137;28;20507;-72
2021/03/25 05:08:15;;;;;;;25.38;13.07;;;8.40;99.90;;;;;;5076045;28;20036;-72
2021/03/25 05:10:44;;;;;;;22.73;12.43;;;8.40;99.90;;;;;;5094364;28;20082;-72
2021/03/25 05:13:29;;;;;;;23.23;12.82;;;8.40;99.90;;;;;;5094275;28;20040;-72
2021/03/25 05:16:29;;;;;;;19.15;11.50;;;8.40;99.90;;;;;;5094213;28;20036;-72
2021/03/25 05:19:16;;;;;;;42.75;17.63;;;8.50;99.90;;;;;;5062867;28;20036;-72
2021/03/25 05:22:00;;;;;;;24.67;13.45;;;8.50;99.90;;;;;;5093869;28;20388;-72
2021/03/25 05:24:32;;;;;;;24.90;13.27;;;8.60;99.90;;;;;;5092878;28;20032;-72
2021/03/25 05:27:06;;;;;;;28.60;14.32;;;8.80;99.90;;;;;;5093586;28;20532;-73
2021/03/25 05:29:33;;;;;;;25.27;14.10;;;9.10;99.90;;;;;;5093855;28;20036;-72
2021/03/25 05:32:00;;;;;;;27.55;14.38;;;9.40;99.40;;;;;;5093467;28;20054;-73
2021/03/25 05:34:27;;;;;;;23.13;13.40;;;9.80;99.00;;;;;;5093492;28;20109;-73
2021/03/25 05:36:57;;;;;;;21.48;12.13;;;9.90;98.50;;;;;;5093541;28;20024;-73
2021/03/25 05:39:24;;;;;;;29.05;13.88;;;10.20;98.20;;;;;;5075373;28;20039;-73
2021/03/25 05:42:12;;;;;;;22.25;12.63;;;10.40;97.90;;;;;;5093765;28;20036;-72
2021/03/25 05:45:00;;;;;;;19.88;13.13;;;10.70;97.40;;;;;;5093546;28;20028;-73
2021/03/25 05:47:58;;;;;;;21.75;12.32;;;11.00;96.90;;;;;;5075258;28;21195;-73
2021/03/25 05:50:27;;;;;;;21.67;13.00;;;11.20;96.50;;;;;;5093445;28;20028;-73
2021/03/25 05:53:34;;;;;;;23.15;12.05;;;11.30;96.40;;;;;;5093392;28;20133;-73
2021/03/25 05:56:13;;;;;;;21.83;12.73;;;11.50;96.20;;;;;;5048291;28;20040;-73
2021/03/25 05:58:52;;;;;;;23.42;13.73;;;11.90;95.80;;;;;;5075269;28;20388;-73
2021/03/25 06:01:29;;;;;;;25.30;12.40;;;12.40;95.10;;;;;;5074954;28;20036;-73
2021/03/25 06:04:42;;;;;;;29.52;12.98;;;12.60;94.50;;;;;;5093187;28;20036;-73
2021/03/25 06:07:14;;;;;;;23.17;12.25;;;12.60;94.50;;;;;;5075458;28;20095;-73
2021/03/25 06:10:05;;;;;;;19.65;12.27;;;12.90;93.90;;;;;;5082901;28;20033;-73
2021/03/25 06:13:06;;;;;;;18.63;11.73;;;12.90;93.90;;;;;;5052753;28;20060;-72
2021/03/25 06:16:03;;;;;;;18.08;11.65;;;13.20;93.60;;;;;;5052872;28;20123;-72
2021/03/25 06:18:45;;;;;;;19.40;11.32;;;13.50;93.20;;;;;;5052808;28;20029;-73
2021/03/25 06:21:18;;;;;;;;;;;13.90;93.20;;;;;;5053021;28;20037;-73
2021/03/25 06:24:09;;;;;;;19.17;11.73;;;14.30;92.60;;;;;;5053584;28;19905;-74
2021/03/25 06:27:18;;;;;;;19.75;12.63;;;14.80;91.60;;;;;;5055508;28;20040;-73
2021/03/25 06:29:49;;;;;;;21.15;12.10;;;14.90;91.40;;;;;;5058706;28;20457;-73
2021/03/25 06:32:23;;;;;;;26.73;12.00;;;14.90;91.30;;;;;;5068961;28;20476;-73
2021/03/25 06:35:01;;;;;;;18.73;11.88;;;15.00;91.20;;;;;;5072344;28;20041;-73
2021/03/25 06:37:38;;;;;;;19.38;11.05;;;15.40;90.70;;;;;;5070374;28;20466;-73
2021/03/25 06:40:18;;;;;;;22.95;11.55;;;15.60;90.40;;;;;;5054622;28;20481;-73
2021/03/25 06:42:59;;;;;;;20.27;12.45;;;15.70;90.00;;;;;;5052254;28;20033;-74
2021/03/25 06:45:38;;;;;;;21.35;12.13;;;15.60;89.80;;;;;;5051850;28;20036;-73
2021/03/25 06:48:18;;;;;;;19.48;12.25;;;15.70;90.20;;;;;;5051549;28;20043;-73
2021/03/25 06:50:50;;;;;;;18.33;11.73;;;16.30;89.50;;;;;;5052193;28;20033;-74
2021/03/25 06:53:18;;;;;;;20.80;11.85;;;16.70;88.00;;;;;;5059044;28;20028;-73
2021/03/25 06:55:44;;;;;;;17.65;11.30;;;16.70;86.60;;;;;;5051378;28;20440;-72
2021/03/25 06:58:15;;;;;;;19.45;12.02;;;16.80;87.20;;;;;;5061499;28;20067;-74
2021/03/25 07:00:48;;;;;;;28.80;11.80;;;16.90;87.60;;;;;;5061445;28;20024;-73
2021/03/25 07:03:18;;;;;;;18.75;11.48;;;17.20;86.00;;;;;;5064282;28;20481;-73
2021/03/25 07:05:45;;;;;;;26.83;11.55;;;17.30;86.40;;;;;;5061393;28;20029;-73
2021/03/25 07:08:14;;;;;;;16.98;10.75;;;17.70;85.40;;;;;;5045276;28;20037;-73
2021/03/25 07:10:40;;;;;;;20.90;11.35;;;18.30;83.80;;;;;;5070710;28;20493;-73
2021/03/25 07:13:08;;;;;;;21.40;11.07;;;18.80;82.30;;;;;;5071128;28;20036;-73
2021/03/25 07:15:36;;;;;;;27.42;11.68;;;19.20;81.10;;;;;;5054054;28;20119;-73
2021/03/25 07:18:05;;;;;;;16.77;10.82;;;19.60;80.00;;;;;;5071529;28;20036;-74
2021/03/25 07:20:35;;;;;;;19.77;10.75;;;19.70;79.70;;;;;;5071820;28;20081;-74
2021/03/25 07:23:14;;;;;;;24.60;11.23;;;19.80;79.30;;;;;;5071955;28;20396;-73
2021/03/25 07:25:46;;;;;;;20.88;10.93;;;19.50;77.90;;;;;;5049992;28;20433;-73
2021/03/25 07:28:24;;;;;;;16.05;9.88;;;19.10;79.70;;;;;;5071713;28;20500;-73
2021/03/25 07:30:55;;;;;;;22.38;11.13;;;19.30;79.30;;;;;;5057957;28;20119;-73
2021/03/25 07:33:23;;;;;;;17.73;10.63;;;19.60;78.20;;;;;;5056801;28;20037;-73
2021/03/25 07:36:10;;;;;;;24.23;11.18;;;19.80;77.00;;;;;;5063719;28;20045;-73
2021/03/25 07:38:41;;;;;;;18.98;9.50;;;20.00;76.90;;;;;;5070220;28;20048;-74
2021/03/25 07:41:07;;;;;;;19.00;10.38;;;20.10;76.30;;;;;;5071672;28;20055;-73
2021/03/25 07:43:50;;;;;;;16.88;9.95;;;20.10;75.70;;;;;;5071648;28;20029;-73
2021/03/25 07:46:27;;;;;;;24.60;10.07;;;20.10;75.70;;;;;;5072090;28;20143;-73
2021/03/25 07:49:15;;;;;;;26.27;10.48;;;20.60;74.80;;;;;;5059925;28;20040;-74
2021/03/25 07:51:47;;;;;;;17.00;9.88;;;21.00;74.20;;;;;;5058319;28;20044;-73
2021/03/25 07:54:22;;;;;;;;;;;21.60;72.20;;;;;;5063791;28;20132;-74
2021/03/25 07:57:02;;;;;;;14.05;8.48;;;21.80;71.20;;;;;;5064623;28;19959;-75
2021/03/25 07:59:35;;;;;;;14.57;9.50;;;22.10;71.70;;;;;;5066303;28;20453;-74
2021/03/25 08:02:01;;;;;;;34.53;9.93;;;22.40;69.70;;;;;;5066916;28;20036;-74
2021/03/25 08:04:30;;;;;;;31.52;10.15;;;22.50;69.60;;;;;;5065900;28;20035;-74
2021/03/25 08:07:08;;;;;;;33.50;10.35;;;22.50;69.00;;;;;;5059059;28;20071;-73
2021/03/25 08:09:44;;;;;;;23.20;10.88;;;22.50;69.90;;;;;;5056564;28;20036;-73
2021/03/25 08:12:24;;;;;;;23.85;10.68;;;22.70;70.70;;;;;;5049036;28;20044;-73
2021/03/25 08:14:51;;;;;;;25.20;9.00;;;23.10;74.80;;;;;;5063081;28;20083;-74
2021/03/25 08:17:25;;;;;;;21.77;9.07;;;23.40;75.20;;;;;;5063364;28;20052;-73
2021/03/25 08:20:16;;;;;;;27.15;8.00;;;23.40;73.90;;;;;;5062279;28;20048;-75
2021/03/25 08:23:16;;;;;;;22.70;9.00;;;23.20;75.20;;;;;;5058748;28;20378;-74
2021/03/25 08:26:04;;;;;;;12.82;7.35;;;23.10;73.60;;;;;;5028970;28;20485;-74
2021/03/25 08:28:48;;;;;;;15.80;7.70;;;23.30;72.00;;;;;;5064057;28;20112;-73
2021/03/25 08:31:28;;;;;;;19.23;8.68;;;23.40;72.60;;;;;;5064217;28;20433;-74
2021/03/25 08:34:03;;;;;;;18.27;9.05;;;23.70;72.20;;;;;;5064247;28;20432;-74
2021/03/25 08:36:41;;;;;;;21.40;9.18;;;23.80;71.70;;;;;;5063765;28;20040;-74
2021/03/25 08:39:18;;;;;;;19.42;11.23;;;23.70;71.00;;;;;;5046071;28;20029;-74
2021/03/25 08:41:52;;;;;;;22.88;11.95;;;23.50;71.40;;;;;;5062948;28;20032;-74
2021/03/25 08:44:55;;;;;;;26.58;9.45;;;23.60;71.20;;;;;;5062186;28;20482;-74
2021/03/25 08:47:33;;;;;;;18.17;9.02;;;23.90;69.60;;;;;;5069061;28;20044;-74
2021/03/25 08:50:30;;;;;;;17.60;8.05;;;24.30;68.10;;;;;;5058768;28;20032;-74
2021/03/25 08:53:01;;;;;;;15.00;8.07;;;24.70;67.60;;;;;;5063032;28;20048;-75
2021/03/25 08:55:33;;;;;;;12.18;7.20;;;24.80;65.30;;;;;;5065457;28;20032;-75
2021/03/25 08:58:25;;;;;;;16.70;7.53;;;24.70;66.30;;;;;;5063256;28;20059;-76
2021/03/25 09:01:02;;;;;;;17.02;7.03;;;25.10;66.10;;;;;;5057869;28;20083;-75
2021/03/25 09:03:45;;;;;;;14.27;8.15;;;25.60;66.50;;;;;;5062828;28;20038;-75
2021/03/25 09:06:24;;;;;;;12.00;7.60;;;25.40;64.40;;;;;;5045561;28;20500;-74
2021/03/25 09:09:21;;;;;;;15.30;7.13;;;25.00;64.90;;;;;;5064420;28;20032;-75
2021/03/25 09:11:47;;;;;;;19.88;7.13;;;24.50;66.70;;;;;;5064511;28;20097;-75
2021/03/25 09:14:22;;;;;;;16.33;7.47;;;24.40;67.60;;;;;;5061235;28;20029;-74
2021/03/25 09:16:49;;;;;;;13.02;7.57;;;24.20;67.50;;;;;;5066276;28;20104;-74
2021/03/25 09:19:23;;;;;;;16.10;7.53;;;23.90;68.20;;;;;;5043473;28;20367;-74
2021/03/25 09:21:56;;;;;;;16.88;8.93;;;23.80;67.70;;;;;;5060779;28;20047;-74
2021/03/25 09:24:22;;;;;;;15.88;8.90;;;23.60;67.80;;;;;;5064868;28;20029;-74
2021/03/25 09:27:14;;;;;;;11.00;7.50;;;23.00;68.00;;;;;;5064394;28;20144;-74
2021/03/25 09:30:15;;;;;;;;;;;22.80;67.60;;;;;;5065219;28;20824;-74
2021/03/25 09:32:41;;;;;;;16.52;8.85;;;22.50;67.70;;;;;;5003807;28;19924;-74
2021/03/25 09:35:27;;;;;;;12.60;8.82;;;;;;;;;;5034247;28;20045;-74
2021/03/25 09:37:54;;;;;;;32.08;10.18;;;21.80;69.20;;;;;;5063360;28;20037;-74
2021/03/25 09:40:49;;;;;;;18.10;8.95;;;21.70;71.60;;;;;;5064364;28;20033;-74
2021/03/25 09:43:37;;;;;;;15.70;9.50;;;21.30;71.90;;;;;;5061449;28;20107;-74
2021/03/25 09:46:38;;;;;;;17.35;9.73;;;21.00;71.50;;;;;;5058082;28;20148;-74
2021/03/25 09:49:26;;;;;;;22.25;8.80;;;20.90;72.00;;;;;;5031337;28;20044;-74
2021/03/25 09:52:13;;;;;;;25.38;9.80;;;20.80;74.10;;;;;;5066031;28;20432;-74
2021/03/25 09:54:48;;;;;;;12.57;8.10;;;20.70;75.20;;;;;;5076163;28;20093;-73
2021/03/25 09:57:30;;;;;;;16.40;9.30;;;20.70;75.80;;;;;;5064961;28;20095;-74
2021/03/25 09:59:58;;;;;;;;;;;20.70;75.20;;;;;;5059513;28;20120;-74
2021/03/25 10:02:48;;;;;;;15.38;8.20;;;20.50;75.50;;;;;;5059445;28;19908;-73
2021/03/25 10:05:25;;;;;;;19.88;8.95;;;20.40;76.20;;;;;;5062983;28;20137;-73
2021/03/25 10:08:00;;;;;;;21.48;8.68;;;20.30;76.50;;;;;;5061849;28;20024;-73
2021/03/25 10:10:50;;;;;;;13.93;9.18;;;20.20;76.40;;;;;;5057436;28;20127;-74
2021/03/25 10:13:40;;;;;;;17.50;9.18;;;20.10;76.50;;;;;;5062459;28;20037;-73
2021/03/25 10:16:11;;;;;;;15.50;8.60;;;20.00;76.80;;;;;;5061779;28;20045;-73
2021/03/25 10:18:36;;;;;;;12.98;7.85;;;20.10;76.40;;;;;;5062399;28;20037;-73
2021/03/25 10:21:03;;;;;;;17.80;8.98;;;20.10;75.70;;;;;;5060522;28;20512;-73
2021/03/25 10:23:33;;;;;;;19.65;8.43;;;20.10;75.80;;;;;;5066111;28;20421;-73
2021/03/25 10:26:04;;;;;;;16.85;9.00;;;20.00;75.70;;;;;;5061232;28;20108;-73
2021/03/25 10:28:40;;;;;;;33.83;9.55;;;20.00;75.90;;;;;;5060191;28;20043;-73
2021/03/25 10:31:10;;;;;;;21.33;9.40;;;19.90;75.70;;;;;;5054951;28;20509;-74
2021/03/25 10:33:37;;;;;;;15.25;8.35;;;19.90;76.40;;;;;;5059739;28;20039;-74
2021/03/25 10:36:12;;;;;;;20.13;8.98;;;19.90;76.90;;;;;;5052701;28;20071;-74
2021/03/25 10:38:45;;;;;;;22.50;9.60;;;19.80;76.20;;;;;;5072261;28;20033;-74
2021/03/25 10:41:23;;;;;;;18.08;9.65;;;19.70;76.70;;;;;;5051115;28;20036;-73
2021/03/25 10:43:50;;;;;;;14.52;8.82;;;19.60;76.40;;;;;;5062358;28;20661;-74
2021/03/25 10:46:42;;;;;;;17.23;9.50;;;19.60;76.70;;;;;;5062972;28;20047;-74
2021/03/25 10:49:13;;;;;;;;;;;19.60;76.30;;;;;;5062331;28;20040;-73
2021/03/25 10:51:42;;;;;;;17.00;8.93;;;19.60;76.00;;;;;;5060224;28;19974;-75
2021/03/25 10:54:27;;;;;;;17.95;9.48;;;19.70;75.50;;;;;;5060879;28;20408;-74
2021/03/25 10:57:17;;;;;;;24.65;10.35;;;19.50;75.10;;;;;;5060022;28;20035;-74
2021/03/25 10:59:55;;;;;;;23.90;9.18;;;19.40;75.60;;;;;;5055140;28;20390;-74
2021/03/25 11:02:25;;;;;;;15.23;9.07;;;19.40;75.40;;;;;;5056705;28;20031;-74
2021/03/25 11:05:13;;;;;;;17.85;9.30;;;19.30;75.70;;;;;;5051676;28;20024;-73
2021/03/25 11:07:41;;;;;;;21.08;9.02;;;19.20;75.60;;;;;;5063033;28;20036;-73
2021/03/25 11:10:18;;;;;;;19.98;9.68;;;19.10;74.50;;;;;;5063408;28;20033;-72
2021/03/25 11:12:44;;;;;;;14.88;8.73;;;18.90;74.20;;;;;;5062795;28;20056;-72
2021/03/25 11:15:25;;;;;;;18.38;9.57;;;18.60;74.90;;;;;;5061600;28;20427;-74
2021/03/25 11:17:51;;;;;;;18.00;10.15;;;18.60;78.30;;;;;;5058701;28;20103;-73
2021/03/25 11:20:20;;;;;;;25.08;10.85;;;18.50;74.60;;;;;;5062131;28;20035;-72
2021/03/25 11:22:46;;;;;;;21.77;10.60;;;18.40;75.50;;;;;;5068511;28;20024;-73
2021/03/25 11:25:19;;;;;;;20.23;9.73;;;18.30;76.00;;;;;;5069199;28;20684;-73
2021/03/25 11:27:45;;;;;;;19.27;9.50;;;18.30;76.20;;;;;;5063091;28;20033;-73
2021/03/25 11:30:31;;;;;;;13.60;8.98;;;18.30;76.10;;;;;;5067595;28;20052;-73
2021/03/25 11:32:57;;;;;;;16.20;9.05;;;18.10;77.00;;;;;;5064565;28;20029;-74
2021/03/25 11:35:40;;;;;;;12.85;7.93;;;18.00;77.50;;;;;;5046443;28;20611;-73
2021/03/25 11:38:24;;;;;;;14.02;8.25;;;18.00;78.20;;;;;;5064305;28;20029;-73
2021/03/25 11:40:54;;;;;;;18.92;7.82;;;17.90;77.00;;;;;;5067231;28;20037;-73
2021/03/25 11:43:23;;;;;;;14.80;7.75;;;17.80;79.10;;;;;;5064984;28;20476;-73
2021/03/25 11:45:53;;;;;;;12.85;7.38;;;17.80;78.50;;;;;;5063484;28;20033;-73
2021/03/25 11:48:29;;;;;;;15.70;7.05;;;17.70;78.80;;;;;;5063163;28;20025;-73
2021/03/25 11:51:20;;;;;;;15.90;6.80;;;17.70;79.60;;;;;;5063734;28;20024;-73
2021/03/25 11:53:48;;;;;;;14.35;7.25;;;17.60;80.80;;;;;;5053890;28;20036;-72
2021/03/25 11:56:34;;;;;;;13.77;7.75;;;17.60;79.70;;;;;;5062539;28;20029;-72
2021/03/25 11:59:25;;;;;;;18.25;6.88;;;17.60;80.50;;;;;;5062026;28;20112;-73
2021/03/25 12:02:18;;;;;;;14.07;7.05;;;17.40;81.20;;;;;;5054471;28;20033;-73
2021/03/25 12:04:44;;;;;;;15.35;7.20;;;17.40;81.50;;;;;;5063245;28;20101;-72
2021/03/25 12:07:13;;;;;;;17.58;7.15;;;17.40;81.10;;;;;;5063800;28;20032;-72
2021/03/25 12:10:17;;;;;;;12.57;7.47;;;17.30;81.20;;;;;;5064209;28;20136;-73
2021/03/25 12:12:45;;;;;;;13.50;6.80;;;17.30;81.30;;;;;;5062937;28;20037;-72
2021/03/25 12:15:11;;;;;;;14.77;7.10;;;17.20;81.50;;;;;;5060442;28;20045;-72
2021/03/25 12:17:43;;;;;;;10.07;6.10;;;17.20;80.40;;;;;;5061998;28;20442;-72
2021/03/25 12:20:17;;;;;;;12.43;6.13;;;17.20;80.90;;;;;;5066741;28;20089;-72
2021/03/25 12:22:43;;;;;;;19.10;6.53;;;17.10;80.80;;;;;;5055247;28;20032;-72
2021/03/25 12:25:19;;;;;;;14.05;6.25;;;17.10;81.60;;;;;;5063160;28;20045;-72
2021/03/25 12:27:44;;;;;;;10.40;5.20;;;17.10;80.60;;;;;;5067194;28;20504;-73
2021/03/25 12:30:11;;;;;;;12.80;5.25;;;17.10;81.00;;;;;;5054535;28;20044;-73
2021/03/25 12:32:36;;;;;;;14.23;5.90;;;17.20;80.20;;;;;;5062823;28;20104;-72
2021/03/25 12:35:03;;;;;;;7.95;4.95;;;17.20;80.20;;;;;;5072988;28;20135;-72
2021/03/25 12:37:29;;;;;;;18.30;5.80;;;17.20;79.90;;;;;;5067126;28;20035;-74
2021/03/25 12:39:55;;;;;;;9.80;5.93;;;17.10;81.60;;;;;;5064970;28;20425;-75
2021/03/25 12:42:21;;;;;;;12.13;5.47;;;17.00;81.70;;;;;;5073074;28;20036;-76
2021/03/25 12:44:47;;;;;;;15.20;5.85;;;17.00;80.60;;;;;;5073983;28;20050;-75
2021/03/25 12:47:13;;;;;;;8.75;5.03;;;16.90;79.10;;;;;;5074795;28;20135;-76
2021/03/25 12:49:39;;;;;;;14.77;6.60;;;16.70;79.00;;;;;;5074197;28;20040;-75
2021/03/25 12:52:06;;;;;;;12.60;5.82;;;16.60;80.70;;;;;;5074490;28;20055;-74
2021/03/25 12:54:32;;;;;;;10.57;5.60;;;16.60;82.60;;;;;;5070476;28;20398;-74
2021/03/25 12:57:01;;;;;;;16.25;6.40;;;16.50;82.80;;;;;;5062252;28;20036;-74
2021/03/25 12:59:27;;;;;;;13.80;6.13;;;16.60;88.10;;;;;;5063817;28;20075;-76
2021/03/25 13:01:53;;;;;;;17.60;6.88;;;16.70;83.60;;;;;;5063097;28;20431;-74
2021/03/25 13:04:19;;;;;;;10.07;5.35;;;16.70;86.20;;;;;;5059733;28;20082;-75
2021/03/25 13:06:45;;;;;;;9.70;6.25;;;16.60;82.90;;;;;;5070716;28;20493;-76
2021/03/25 13:09:11;;;;;;;9.68;5.55;;;16.70;84.10;;;;;;5080432;28;20036;-75
2021/03/25 13:11:37;;;;;;;8.90;5.38;;;16.70;82.90;;;;;;5068164;28;20016;-75
2021/03/25 13:14:05;;;;;;;9.40;5.80;;;16.70;82.90;;;;;;5077253;28;20460;-76
2021/03/25 13:16:32;;;;;;;10.68;5.88;;;16.80;84.30;;;;;;5072378;28;20036;-74
2021/03/25 13:18:58;;;;;;;12.27;5.18;;;16.80;85.20;;;;;;5076900;28;20026;-76